sensor_id;sensor_type;location;lat;lon;timestamp;temperature;humidity
79248;DHT22;68675;46.146;-0.948;2023-03-29T00:02:15;19.00;79.10
79248;DHT22;68675;46.146;-0.948;2023-03-29T00:04:41;19.10;79.10
79248;DHT22;68675;46.146;-0.948;2023-03-29T00:07:07;19.10;79.20
79248;DHT22;68675;46.146;-0.948;2023-03-29T00:09:32;19.10;79.10
79248;DHT22;68675;46.146;-0.948;2023-03-29T00:11:58;19.10;79.20
79248;DHT22;68675;46.146;-0.948;2023-03-29T00:14:24;19.10;79.20
79248;DHT22;68675;46.146;-0.948;2023-03-29T00:16:51;19.00;79.10
79248;DHT22;68675;46.146;-0.948;2023-03-29T00:19:16;19.00;79.20
79248;DHT22;68675;46.146;-0.948;2023-03-29T00:21:42;19.00;79.20
79248;DHT22;68675;46.146;-0.948;2023-03-29T00:24:07;19.00;79.10
79248;DHT22;68675;46.146;-0.948;2023-03-29T00:26:33;19.00;79.20
79248;DHT22;68675;46.146;-0.948;2023-03-29T00:28:58;19.10;79.20
79248;DHT22;68675;46.146;-0.948;2023-03-29T00:31:24;19.00;79.20
79248;DHT22;68675;46.146;-0.948;2023-03-29T00:33:50;19.00;79.20
79248;DHT22;68675;46.146;-0.948;2023-03-29T00:36:15;18.90;79.20
79248;DHT22;68675;46.146;-0.948;2023-03-29T00:38:41;19.00;79.20
79248;DHT22;68675;46.146;-0.948;2023-03-29T00:41:07;19.00;79.30
79248;DHT22;68675;46.146;-0.948;2023-03-29T00:43:49;19.00;79.40
79248;DHT22;68675;46.146;-0.948;2023-03-29T00:46:15;19.00;79.30
79248;DHT22;68675;46.146;-0.948;2023-03-29T00:48:41;19.00;79.30
79248;DHT22;68675;46.146;-0.948;2023-03-29T00:51:07;18.90;79.40
79248;DHT22;68675;46.146;-0.948;2023-03-29T00:53:36;19.00;79.20
79248;DHT22;68675;46.146;-0.948;2023-03-29T00:56:12;19.00;79.30
79248;DHT22;68675;46.146;-0.948;2023-03-29T01:01:06;19.00;79.30
79248;DHT22;68675;46.146;-0.948;2023-03-29T01:03:42;19.00;79.20
79248;DHT22;68675;46.146;-0.948;2023-03-29T01:06:10;18.90;79.20
79248;DHT22;68675;46.146;-0.948;2023-03-29T01:08:41;19.00;79.40
79248;DHT22;68675;46.146;-0.948;2023-03-29T01:11:09;18.90;79.40
79248;DHT22;68675;46.146;-0.948;2023-03-29T01:13:38;18.90;79.40
79248;DHT22;68675;46.146;-0.948;2023-03-29T01:16:05;18.90;79.40
79248;DHT22;68675;46.146;-0.948;2023-03-29T01:18:31;19.00;79.30
79248;DHT22;68675;46.146;-0.948;2023-03-29T01:31:27;18.90;79.50
79248;DHT22;68675;46.146;-0.948;2023-03-29T01:34:01;18.90;79.30
79248;DHT22;68675;46.146;-0.948;2023-03-29T01:36:31;18.90;79.40
79248;DHT22;68675;46.146;-0.948;2023-03-29T01:38:59;18.90;79.50
79248;DHT22;68675;46.146;-0.948;2023-03-29T01:41:51;18.80;79.50
79248;DHT22;68675;46.146;-0.948;2023-03-29T01:44:18;18.90;79.50
79248;DHT22;68675;46.146;-0.948;2023-03-29T01:46:52;18.90;79.40
79248;DHT22;68675;46.146;-0.948;2023-03-29T01:49:27;18.90;79.60
79248;DHT22;68675;46.146;-0.948;2023-03-29T01:52:15;18.90;79.40
79248;DHT22;68675;46.146;-0.948;2023-03-29T01:54:47;18.80;79.40
79248;DHT22;68675;46.146;-0.948;2023-03-29T01:57:14;18.90;79.40
79248;DHT22;68675;46.146;-0.948;2023-03-29T01:59:41;18.90;79.60
79248;DHT22;68675;46.146;-0.948;2023-03-29T02:02:08;18.80;79.50
79248;DHT22;68675;46.146;-0.948;2023-03-29T02:04:36;18.80;79.50
79248;DHT22;68675;46.146;-0.948;2023-03-29T02:07:04;18.80;79.40
79248;DHT22;68675;46.146;-0.948;2023-03-29T02:09:31;18.80;79.50
79248;DHT22;68675;46.146;-0.948;2023-03-29T02:11:58;18.80;79.40
79248;DHT22;68675;46.146;-0.948;2023-03-29T02:14:24;18.90;79.50
79248;DHT22;68675;46.146;-0.948;2023-03-29T02:16:50;18.80;79.50
79248;DHT22;68675;46.146;-0.948;2023-03-29T02:19:16;18.90;79.50
79248;DHT22;68675;46.146;-0.948;2023-03-29T02:24:08;18.90;79.30
79248;DHT22;68675;46.146;-0.948;2023-03-29T02:26:35;18.90;79.50
79248;DHT22;68675;46.146;-0.948;2023-03-29T02:29:01;18.90;79.50
79248;DHT22;68675;46.146;-0.948;2023-03-29T02:34:13;18.90;79.40
79248;DHT22;68675;46.146;-0.948;2023-03-29T02:36:42;18.80;79.60
79248;DHT22;68675;46.146;-0.948;2023-03-29T02:39:08;18.80;79.60
79248;DHT22;68675;46.146;-0.948;2023-03-29T02:41:35;18.90;79.60
79248;DHT22;68675;46.146;-0.948;2023-03-29T02:44:01;18.80;79.50
79248;DHT22;68675;46.146;-0.948;2023-03-29T02:46:28;18.80;79.40
79248;DHT22;68675;46.146;-0.948;2023-03-29T02:48:54;18.80;79.50
79248;DHT22;68675;46.146;-0.948;2023-03-29T02:51:22;18.90;79.50
79248;DHT22;68675;46.146;-0.948;2023-03-29T02:54:33;18.80;79.50
79248;DHT22;68675;46.146;-0.948;2023-03-29T02:57:07;18.80;79.40
79248;DHT22;68675;46.146;-0.948;2023-03-29T02:59:26;18.80;79.50
79248;DHT22;68675;46.146;-0.948;2023-03-29T03:01:54;18.80;79.50
79248;DHT22;68675;46.146;-0.948;2023-03-29T03:04:19;18.80;79.50
79248;DHT22;68675;46.146;-0.948;2023-03-29T03:06:45;18.70;79.50
79248;DHT22;68675;46.146;-0.948;2023-03-29T03:09:11;18.80;79.60
79248;DHT22;68675;46.146;-0.948;2023-03-29T03:11:37;18.70;79.40
79248;DHT22;68675;46.146;-0.948;2023-03-29T03:14:02;18.80;79.50
79248;DHT22;68675;46.146;-0.948;2023-03-29T03:16:28;18.80;79.70
79248;DHT22;68675;46.146;-0.948;2023-03-29T03:18:53;18.80;79.40
79248;DHT22;68675;46.146;-0.948;2023-03-29T03:21:20;18.80;79.60
79248;DHT22;68675;46.146;-0.948;2023-03-29T03:23:45;18.90;79.40
79248;DHT22;68675;46.146;-0.948;2023-03-29T03:26:12;18.90;79.50
79248;DHT22;68675;46.146;-0.948;2023-03-29T03:28:38;18.80;79.40
79248;DHT22;68675;46.146;-0.948;2023-03-29T03:31:04;18.90;79.60
79248;DHT22;68675;46.146;-0.948;2023-03-29T03:33:30;18.80;79.60
79248;DHT22;68675;46.146;-0.948;2023-03-29T03:35:56;18.80;79.40
79248;DHT22;68675;46.146;-0.948;2023-03-29T03:38:32;18.90;79.50
79248;DHT22;68675;46.146;-0.948;2023-03-29T03:40:58;18.90;79.40
79248;DHT22;68675;46.146;-0.948;2023-03-29T03:43:25;18.80;79.50
79248;DHT22;68675;46.146;-0.948;2023-03-29T03:45:52;18.80;79.60
79248;DHT22;68675;46.146;-0.948;2023-03-29T03:48:18;18.80;79.60
79248;DHT22;68675;46.146;-0.948;2023-03-29T03:50:47;18.80;79.70
79248;DHT22;68675;46.146;-0.948;2023-03-29T03:53:13;18.80;79.60
79248;DHT22;68675;46.146;-0.948;2023-03-29T03:55:38;18.80;79.60
79248;DHT22;68675;46.146;-0.948;2023-03-29T03:58:04;18.80;79.50
79248;DHT22;68675;46.146;-0.948;2023-03-29T04:00:29;18.80;79.50
79248;DHT22;68675;46.146;-0.948;2023-03-29T04:02:55;18.80;79.50
79248;DHT22;68675;46.146;-0.948;2023-03-29T04:05:20;18.80;79.60
79248;DHT22;68675;46.146;-0.948;2023-03-29T04:07:46;18.80;79.50
79248;DHT22;68675;46.146;-0.948;2023-03-29T04:10:11;18.80;79.50
79248;DHT22;68675;46.146;-0.948;2023-03-29T04:12:37;18.90;79.60
79248;DHT22;68675;46.146;-0.948;2023-03-29T04:15:03;18.80;79.50
79248;DHT22;68675;46.146;-0.948;2023-03-29T04:17:29;18.80;79.60
79248;DHT22;68675;46.146;-0.948;2023-03-29T04:19:55;18.80;79.50
79248;DHT22;68675;46.146;-0.948;2023-03-29T04:22:22;18.80;79.50
79248;DHT22;68675;46.146;-0.948;2023-03-29T04:24:49;18.80;79.40
79248;DHT22;68675;46.146;-0.948;2023-03-29T04:27:15;18.80;79.60
79248;DHT22;68675;46.146;-0.948;2023-03-29T04:29:40;18.90;79.60
79248;DHT22;68675;46.146;-0.948;2023-03-29T04:32:09;18.80;79.50
79248;DHT22;68675;46.146;-0.948;2023-03-29T04:34:34;18.80;79.60
79248;DHT22;68675;46.146;-0.948;2023-03-29T04:37:00;18.80;79.50
79248;DHT22;68675;46.146;-0.948;2023-03-29T04:39:26;18.80;79.60
79248;DHT22;68675;46.146;-0.948;2023-03-29T04:41:58;18.80;79.60
79248;DHT22;68675;46.146;-0.948;2023-03-29T04:44:24;18.90;79.60
79248;DHT22;68675;46.146;-0.948;2023-03-29T04:46:51;18.80;79.60
79248;DHT22;68675;46.146;-0.948;2023-03-29T04:49:16;18.80;79.50
79248;DHT22;68675;46.146;-0.948;2023-03-29T04:51:42;18.80;79.50
79248;DHT22;68675;46.146;-0.948;2023-03-29T04:54:08;18.80;79.50
79248;DHT22;68675;46.146;-0.948;2023-03-29T04:56:33;18.80;79.50
79248;DHT22;68675;46.146;-0.948;2023-03-29T04:58:59;18.90;79.50
79248;DHT22;68675;46.146;-0.948;2023-03-29T05:01:24;18.90;79.50
79248;DHT22;68675;46.146;-0.948;2023-03-29T05:03:50;18.80;79.70
79248;DHT22;68675;46.146;-0.948;2023-03-29T05:06:16;18.90;79.60
79248;DHT22;68675;46.146;-0.948;2023-03-29T05:08:42;18.90;79.70
79248;DHT22;68675;46.146;-0.948;2023-03-29T05:11:08;18.90;79.90
79248;DHT22;68675;46.146;-0.948;2023-03-29T05:13:34;18.90;79.80
79248;DHT22;68675;46.146;-0.948;2023-03-29T05:16:00;18.90;79.80
79248;DHT22;68675;46.146;-0.948;2023-03-29T05:18:26;18.90;79.90
79248;DHT22;68675;46.146;-0.948;2023-03-29T05:20:52;18.90;79.60
79248;DHT22;68675;46.146;-0.948;2023-03-29T05:23:18;18.90;79.70
79248;DHT22;68675;46.146;-0.948;2023-03-29T05:25:46;18.90;79.70
79248;DHT22;68675;46.146;-0.948;2023-03-29T05:28:11;18.90;79.70
79248;DHT22;68675;46.146;-0.948;2023-03-29T05:30:37;18.90;79.80
79248;DHT22;68675;46.146;-0.948;2023-03-29T05:33:03;18.90;79.60
79248;DHT22;68675;46.146;-0.948;2023-03-29T05:35:30;18.90;79.80
79248;DHT22;68675;46.146;-0.948;2023-03-29T05:37:55;19.00;79.90
79248;DHT22;68675;46.146;-0.948;2023-03-29T05:40:21;18.90;79.60
79248;DHT22;68675;46.146;-0.948;2023-03-29T05:42:46;18.90;79.60
79248;DHT22;68675;46.146;-0.948;2023-03-29T05:45:12;18.80;79.60
79248;DHT22;68675;46.146;-0.948;2023-03-29T05:47:37;18.90;79.80
79248;DHT22;68675;46.146;-0.948;2023-03-29T05:50:03;18.80;79.80
79248;DHT22;68675;46.146;-0.948;2023-03-29T05:52:29;18.80;79.80
79248;DHT22;68675;46.146;-0.948;2023-03-29T05:54:55;18.90;79.60
79248;DHT22;68675;46.146;-0.948;2023-03-29T05:57:21;18.80;79.70
79248;DHT22;68675;46.146;-0.948;2023-03-29T05:59:47;18.90;79.80
79248;DHT22;68675;46.146;-0.948;2023-03-29T06:02:12;18.90;79.80
79248;DHT22;68675;46.146;-0.948;2023-03-29T06:04:40;18.90;79.70
79248;DHT22;68675;46.146;-0.948;2023-03-29T06:07:05;18.90;79.40
79248;DHT22;68675;46.146;-0.948;2023-03-29T06:09:31;19.00;79.70
79248;DHT22;68675;46.146;-0.948;2023-03-29T06:11:57;18.90;79.60
79248;DHT22;68675;46.146;-0.948;2023-03-29T06:14:23;19.00;79.70
79248;DHT22;68675;46.146;-0.948;2023-03-29T06:16:49;18.90;79.70
79248;DHT22;68675;46.146;-0.948;2023-03-29T06:19:15;18.90;79.60
79248;DHT22;68675;46.146;-0.948;2023-03-29T06:21:40;18.90;79.60
79248;DHT22;68675;46.146;-0.948;2023-03-29T06:24:06;18.90;79.70
79248;DHT22;68675;46.146;-0.948;2023-03-29T06:26:31;18.90;79.80
79248;DHT22;68675;46.146;-0.948;2023-03-29T06:28:57;19.00;79.80
79248;DHT22;68675;46.146;-0.948;2023-03-29T06:31:22;19.00;79.70
79248;DHT22;68675;46.146;-0.948;2023-03-29T06:33:48;18.90;79.60
79248;DHT22;68675;46.146;-0.948;2023-03-29T06:36:14;19.00;79.70
79248;DHT22;68675;46.146;-0.948;2023-03-29T06:38:40;19.00;79.60
79248;DHT22;68675;46.146;-0.948;2023-03-29T06:41:07;18.90;79.90
79248;DHT22;68675;46.146;-0.948;2023-03-29T06:43:35;18.90;79.70
79248;DHT22;68675;46.146;-0.948;2023-03-29T06:46:01;18.90;79.90
79248;DHT22;68675;46.146;-0.948;2023-03-29T06:48:27;18.90;79.80
79248;DHT22;68675;46.146;-0.948;2023-03-29T06:50:52;18.90;79.90
79248;DHT22;68675;46.146;-0.948;2023-03-29T06:53:18;19.00;79.70
79248;DHT22;68675;46.146;-0.948;2023-03-29T06:55:44;18.90;79.80
79248;DHT22;68675;46.146;-0.948;2023-03-29T06:58:10;19.00;79.60
79248;DHT22;68675;46.146;-0.948;2023-03-29T07:00:35;19.00;79.70
79248;DHT22;68675;46.146;-0.948;2023-03-29T07:03:07;19.10;79.80
79248;DHT22;68675;46.146;-0.948;2023-03-29T07:05:34;19.00;79.50
79248;DHT22;68675;46.146;-0.948;2023-03-29T07:08:06;19.10;79.80
79248;DHT22;68675;46.146;-0.948;2023-03-29T07:10:34;19.00;80.00
79248;DHT22;68675;46.146;-0.948;2023-03-29T07:13:00;19.00;79.80
79248;DHT22;68675;46.146;-0.948;2023-03-29T07:15:26;19.10;79.90
79248;DHT22;68675;46.146;-0.948;2023-03-29T07:17:52;19.10;79.80
79248;DHT22;68675;46.146;-0.948;2023-03-29T07:20:18;19.00;79.80
79248;DHT22;68675;46.146;-0.948;2023-03-29T07:22:44;19.10;79.90
79248;DHT22;68675;46.146;-0.948;2023-03-29T07:25:11;19.10;79.90
79248;DHT22;68675;46.146;-0.948;2023-03-29T07:27:38;19.10;79.90
79248;DHT22;68675;46.146;-0.948;2023-03-29T07:30:04;19.10;79.70
79248;DHT22;68675;46.146;-0.948;2023-03-29T07:32:38;19.00;79.70
79248;DHT22;68675;46.146;-0.948;2023-03-29T07:35:04;19.00;79.80
79248;DHT22;68675;46.146;-0.948;2023-03-29T07:37:31;19.10;79.80
79248;DHT22;68675;46.146;-0.948;2023-03-29T07:39:56;19.10;79.70
79248;DHT22;68675;46.146;-0.948;2023-03-29T07:42:22;19.10;79.80
79248;DHT22;68675;46.146;-0.948;2023-03-29T07:44:48;19.10;79.90
79248;DHT22;68675;46.146;-0.948;2023-03-29T07:47:13;19.00;79.90
79248;DHT22;68675;46.146;-0.948;2023-03-29T07:49:40;19.10;79.90
79248;DHT22;68675;46.146;-0.948;2023-03-29T07:52:06;19.00;79.80
79248;DHT22;68675;46.146;-0.948;2023-03-29T07:54:32;19.20;79.80
79248;DHT22;68675;46.146;-0.948;2023-03-29T07:56:57;19.10;79.80
79248;DHT22;68675;46.146;-0.948;2023-03-29T07:59:23;19.20;79.90
79248;DHT22;68675;46.146;-0.948;2023-03-29T08:01:48;19.00;79.80
79248;DHT22;68675;46.146;-0.948;2023-03-29T08:04:14;19.10;79.70
79248;DHT22;68675;46.146;-0.948;2023-03-29T08:06:40;19.10;79.80
79248;DHT22;68675;46.146;-0.948;2023-03-29T08:09:05;19.10;79.60
79248;DHT22;68675;46.146;-0.948;2023-03-29T08:11:31;19.10;79.60
79248;DHT22;68675;46.146;-0.948;2023-03-29T08:13:56;19.10;79.60
79248;DHT22;68675;46.146;-0.948;2023-03-29T08:16:24;19.20;79.70
79248;DHT22;68675;46.146;-0.948;2023-03-29T08:18:49;19.20;79.60
79248;DHT22;68675;46.146;-0.948;2023-03-29T08:21:15;19.10;79.40
79248;DHT22;68675;46.146;-0.948;2023-03-29T08:23:41;19.10;79.50
79248;DHT22;68675;46.146;-0.948;2023-03-29T08:26:06;19.10;79.50
79248;DHT22;68675;46.146;-0.948;2023-03-29T08:28:33;19.10;79.60
79248;DHT22;68675;46.146;-0.948;2023-03-29T08:30:59;19.10;79.60
79248;DHT22;68675;46.146;-0.948;2023-03-29T08:33:24;19.10;77.80
79248;DHT22;68675;46.146;-0.948;2023-03-29T08:35:50;18.90;76.50
79248;DHT22;68675;46.146;-0.948;2023-03-29T08:38:15;18.50;76.50
79248;DHT22;68675;46.146;-0.948;2023-03-29T08:40:41;18.10;77.50
79248;DHT22;68675;46.146;-0.948;2023-03-29T08:48:30;18.60;78.20
79248;DHT22;68675;46.146;-0.948;2023-03-29T08:51:01;18.70;78.10
79248;DHT22;68675;46.146;-0.948;2023-03-29T08:53:29;18.80;78.10
79248;DHT22;68675;46.146;-0.948;2023-03-29T08:55:57;18.90;78.20
79248;DHT22;68675;46.146;-0.948;2023-03-29T08:58:25;18.90;78.30
79248;DHT22;68675;46.146;-0.948;2023-03-29T09:00:52;19.00;78.20
79248;DHT22;68675;46.146;-0.948;2023-03-29T09:03:19;19.00;78.20
79248;DHT22;68675;46.146;-0.948;2023-03-29T09:05:47;19.10;78.00
79248;DHT22;68675;46.146;-0.948;2023-03-29T09:08:16;19.20;78.20
79248;DHT22;68675;46.146;-0.948;2023-03-29T09:10:44;19.20;78.30
79248;DHT22;68675;46.146;-0.948;2023-03-29T09:13:20;19.30;78.10
79248;DHT22;68675;46.146;-0.948;2023-03-29T09:18:40;19.50;78.20
79248;DHT22;68675;46.146;-0.948;2023-03-29T09:21:29;19.50;78.20
79248;DHT22;68675;46.146;-0.948;2023-03-29T09:24:06;19.60;78.20
79248;DHT22;68675;46.146;-0.948;2023-03-29T09:29:37;19.70;78.10
79248;DHT22;68675;46.146;-0.948;2023-03-29T09:31:54;19.80;77.90
79248;DHT22;68675;46.146;-0.948;2023-03-29T09:35:22;19.80;78.10
79248;DHT22;68675;46.146;-0.948;2023-03-29T09:37:24;19.80;78.00
79248;DHT22;68675;46.146;-0.948;2023-03-29T09:39:53;19.90;78.10
79248;DHT22;68675;46.146;-0.948;2023-03-29T09:42:20;20.10;78.00
79248;DHT22;68675;46.146;-0.948;2023-03-29T09:44:47;20.10;78.00
79248;DHT22;68675;46.146;-0.948;2023-03-29T09:47:24;20.10;78.00
79248;DHT22;68675;46.146;-0.948;2023-03-29T09:49:54;20.10;77.80
79248;DHT22;68675;46.146;-0.948;2023-03-29T09:52:21;20.20;77.70
79248;DHT22;68675;46.146;-0.948;2023-03-29T09:54:47;20.30;77.80
79248;DHT22;68675;46.146;-0.948;2023-03-29T09:57:16;20.30;77.70
79248;DHT22;68675;46.146;-0.948;2023-03-29T09:59:43;20.30;77.60
79248;DHT22;68675;46.146;-0.948;2023-03-29T10:02:10;20.40;77.70
79248;DHT22;68675;46.146;-0.948;2023-03-29T10:04:36;20.40;77.60
79248;DHT22;68675;46.146;-0.948;2023-03-29T10:07:03;20.50;77.50
79248;DHT22;68675;46.146;-0.948;2023-03-29T10:09:29;20.60;77.70
79248;DHT22;68675;46.146;-0.948;2023-03-29T10:11:57;20.50;77.70
79248;DHT22;68675;46.146;-0.948;2023-03-29T10:14:36;20.50;77.70
79248;DHT22;68675;46.146;-0.948;2023-03-29T10:17:21;20.50;77.60
79248;DHT22;68675;46.146;-0.948;2023-03-29T10:19:49;20.70;77.60
79248;DHT22;68675;46.146;-0.948;2023-03-29T10:22:20;20.60;77.80
79248;DHT22;68675;46.146;-0.948;2023-03-29T10:24:50;20.50;77.50
79248;DHT22;68675;46.146;-0.948;2023-03-29T10:27:21;20.50;77.50
79248;DHT22;68675;46.146;-0.948;2023-03-29T10:29:48;20.60;77.50
79248;DHT22;68675;46.146;-0.948;2023-03-29T10:34:51;20.80;77.10
79248;DHT22;68675;46.146;-0.948;2023-03-29T10:37:18;20.80;77.00
79248;DHT22;68675;46.146;-0.948;2023-03-29T10:39:44;20.90;76.30
79248;DHT22;68675;46.146;-0.948;2023-03-29T10:42:12;20.90;76.60
79248;DHT22;68675;46.146;-0.948;2023-03-29T10:44:39;20.90;77.10
79248;DHT22;68675;46.146;-0.948;2023-03-29T10:47:14;20.90;76.30
79248;DHT22;68675;46.146;-0.948;2023-03-29T10:49:42;21.00;76.40
79248;DHT22;68675;46.146;-0.948;2023-03-29T10:52:08;21.10;76.10
79248;DHT22;68675;46.146;-0.948;2023-03-29T10:54:33;21.10;76.20
79248;DHT22;68675;46.146;-0.948;2023-03-29T10:57:02;21.00;76.40
79248;DHT22;68675;46.146;-0.948;2023-03-29T11:02:05;21.00;76.30
